Time;durP1;ratioP1;P1;durP2;ratioP2;P2;SDS_P1;SDS_P2;PMS_P1;PMS_P2;Temp;Humidity;BMP_temperature;BMP_pressure;BME280_temperature;BME280_humidity;BME280_pressure;Samples;Min_cycle;Max_cycle;Signal;HPM_P1;HPM_P2
2023/08/09 00:04:29;;;;;;;3.70;2.00;;;;;;;13.11;100.00;98934.20;270273;1269;22158;-83
2023/08/09 00:10:32;;;;;;;3.00;1.70;;;;;;;13.09;100.00;98932.01;271045;1269;23475;-84
2023/08/09 00:16:34;;;;;;;2.50;1.80;;;;;;;13.10;100.00;98928.47;270852;1269;22166;-82
2023/08/09 00:22:35;;;;;;;6.20;2.30;;;;;;;13.08;100.00;98932.55;271528;1269;22485;-83
2023/08/09 00:28:37;;;;;;;2.90;1.90;;;;;;;13.03;100.00;98931.39;273215;1269;22333;-83
2023/08/09 00:34:39;;;;;;;2.00;1.50;;;;;;;13.01;100.00;98928.78;273294;1269;22171;-83
2023/08/09 00:40:41;;;;;;;2.80;1.80;;;;;;;12.98;100.00;98929.70;272863;1269;126486;-83
2023/08/09 00:46:42;;;;;;;4.70;1.90;;;;;;;12.98;100.00;98922.02;273230;1269;22450;-83
2023/08/09 00:52:44;;;;;;;2.30;1.70;;;;;;;13.01;100.00;98915.83;272996;1269;22270;-83
2023/08/09 00:58:46;;;;;;;4.40;2.30;;;;;;;13.01;100.00;98908.77;270209;1269;22557;-83
2023/08/09 01:04:48;;;;;;;4.00;2.00;;;;;;;13.01;100.00;98908.92;273092;1269;23090;-83
2023/08/09 01:10:57;;;;;;;4.70;2.30;;;;;;;13.00;100.00;98910.17;272507;1269;22524;-83
2023/08/09 01:16:59;;;;;;;2.90;1.90;;;;;;;12.98;100.00;98913.23;271232;1269;22587;-83
2023/08/09 01:23:10;;;;;;;3.50;1.90;;;;;;;12.96;100.00;98921.52;270461;1269;25624;-82
2023/08/09 01:29:11;;;;;;;2.30;1.80;;;;;;;12.95;100.00;98927.11;271895;1269;22384;-83
2023/08/09 01:35:13;;;;;;;3.30;2.00;;;;;;;12.96;100.00;98932.36;273084;1269;23000;-82
2023/08/09 01:41:15;;;;;;;3.50;2.30;;;;;;;12.97;100.00;98930.80;272210;1269;22535;-83
2023/08/09 01:47:19;;;;;;;3.60;2.10;;;;;;;12.97;100.00;98932.36;270804;1269;22297;-82
2023/08/09 01:53:21;;;;;;;7.30;2.00;;;;;;;12.96;100.00;98927.80;272032;1269;22197;-83
2023/08/09 01:59:23;;;;;;;3.10;2.50;;;;;;;12.87;100.00;98930.79;272710;1269;22369;-83
2023/08/09 02:05:24;;;;;;;3.50;2.20;;;;;;;12.80;100.00;98938.40;273138;1269;22438;-83
2023/08/09 02:11:27;;;;;;;5.10;2.70;;;;;;;12.83;100.00;98939.19;273057;1269;22454;-83
2023/08/09 02:17:28;;;;;;;4.50;2.50;;;;;;;12.83;100.00;98941.15;273150;1269;22387;-83
2023/08/09 02:23:32;;;;;;;3.50;2.40;;;;;;;12.81;100.00;98942.88;273244;1267;23201;-82
2023/08/09 02:29:34;;;;;;;3.10;2.60;;;;;;;12.83;100.00;98941.30;271777;1269;22520;-83
2023/08/09 02:35:52;;;;;;;4.80;2.20;;;;;;;12.87;100.00;98941.39;270035;1269;22693;-83
2023/08/09 02:41:54;;;;;;;2.90;2.20;;;;;;;12.78;100.00;98938.79;271424;1267;22376;-83
2023/08/09 02:47:55;;;;;;;4.80;2.70;;;;;;;12.73;100.00;98940.83;270626;1269;22522;-83
2023/08/09 02:54:04;;;;;;;3.20;2.50;;;;;;;12.76;100.00;98942.31;272608;1269;22182;-83
2023/08/09 03:00:07;;;;;;;6.10;2.40;;;;;;;12.76;100.00;98944.99;271042;1269;22537;-83
2023/08/09 03:06:10;;;;;;;3.70;2.20;;;;;;;12.78;100.00;98941.06;271202;1269;22231;-83
2023/08/09 03:12:12;;;;;;;3.90;2.50;;;;;;;12.81;100.00;98942.95;273149;1269;22365;-83
2023/08/09 03:18:14;;;;;;;4.10;2.50;;;;;;;12.83;100.00;98945.54;273138;1269;22189;-83
2023/08/09 03:24:16;;;;;;;3.50;2.70;;;;;;;12.82;100.00;98947.41;273163;1268;22422;-83
2023/08/09 03:30:22;;;;;;;3.30;2.30;;;;;;;12.75;100.00;98953.15;273132;1269;22366;-82
2023/08/09 03:36:25;;;;;;;3.50;2.20;;;;;;;12.73;100.00;98954.40;273202;1268;22349;-84
2023/08/09 03:42:26;;;;;;;3.70;2.50;;;;;;;12.71;100.00;98960.11;273140;1269;23126;-83
2023/08/09 03:48:28;;;;;;;4.40;2.30;;;;;;;12.74;100.00;98958.17;273205;1269;22916;-81
2023/08/09 03:54:30;;;;;;;2.90;2.40;;;;;;;12.75;100.00;98953.30;273135;1269;23573;-83
2023/08/09 04:00:33;;;;;;;3.60;2.40;;;;;;;12.77;100.00;98947.80;273027;1269;22528;-82
2023/08/09 04:06:38;;;;;;;7.20;2.80;;;;;;;12.79;100.00;98946.95;273135;1262;22204;-81
2023/08/09 04:12:40;;;;;;;3.30;2.30;;;;;;;12.80;100.00;98952.45;272545;1269;22860;-82
2023/08/09 04:18:42;;;;;;;5.00;2.60;;;;;;;12.82;100.00;98950.48;272974;1269;22369;-83
2023/08/09 04:24:44;;;;;;;3.00;2.40;;;;;;;12.86;100.00;98954.34;272831;1269;25277;-81
2023/08/09 04:30:46;;;;;;;3.70;2.40;;;;;;;12.90;100.00;98961.33;270744;1269;22464;-83
2023/08/09 04:36:47;;;;;;;3.70;2.40;;;;;;;12.93;100.00;98962.51;271580;1269;22581;-83
2023/08/09 04:42:49;;;;;;;5.00;2.60;;;;;;;12.96;100.00;98965.73;270372;1268;22561;-82
2023/08/09 04:48:51;;;;;;;3.80;2.30;;;;;;;12.98;100.00;98969.51;270038;1269;22544;-82
2023/08/09 04:54:53;;;;;;;4.70;2.50;;;;;;;13.06;100.00;98971.98;271206;1269;23065;-83
2023/08/09 05:00:55;;;;;;;5.00;2.90;;;;;;;13.13;100.00;98966.71;270313;1263;23770;-82
2023/08/09 05:06:57;;;;;;;4.80;3.30;;;;;;;13.16;100.00;98958.46;270114;1269;22676;-82
2023/08/09 05:13:04;;;;;;;3.80;2.90;;;;;;;13.24;100.00;98948.58;271402;1269;22414;-82
2023/08/09 05:19:14;;;;;;;3.80;2.80;;;;;;;13.34;100.00;98949.05;270263;1269;22511;-82
2023/08/09 05:25:17;;;;;;;5.00;2.60;;;;;;;13.41;100.00;98958.94;270456;1265;23465;-82
2023/08/09 05:31:19;;;;;;;3.60;2.60;;;;;;;13.48;100.00;98967.34;270054;1269;22558;-83
2023/08/09 05:37:20;;;;;;;4.10;2.50;;;;;;;13.58;100.00;98966.54;270346;1256;22515;-83
2023/08/09 05:43:22;;;;;;;6.10;3.30;;;;;;;13.75;100.00;98969.17;270124;1269;22554;-83
2023/08/09 05:49:24;;;;;;;6.50;4.30;;;;;;;13.94;100.00;98971.48;269851;1269;23130;-82
2023/08/09 05:55:26;;;;;;;18.70;7.90;;;;;;;14.09;100.00;98970.20;272491;1266;23464;-82
2023/08/09 06:01:29;;;;;;;9.40;6.00;;;;;;;14.22;100.00;98967.73;272361;1269;22326;-82
2023/08/09 06:07:30;;;;;;;7.10;4.50;;;;;;;14.38;100.00;98964.36;271078;1269;22583;-83
2023/08/09 06:13:32;;;;;;;7.30;5.10;;;;;;;14.57;100.00;98955.69;270220;1269;22944;-83
2023/08/09 06:19:34;;;;;;;6.10;3.90;;;;;;;14.76;100.00;98959.04;270822;1269;22409;-82
2023/08/09 06:25:37;;;;;;;10.20;4.80;;;;;;;14.88;100.00;98967.15;270377;1269;22518;-82
2023/08/09 06:31:39;;;;;;;3.30;2.60;;;;;;;14.97;100.00;98967.17;272033;1269;22407;-82
2023/08/09 06:37:40;;;;;;;4.40;1.90;;;;;;;15.16;100.00;98963.33;270836;1269;22525;-83
2023/08/09 06:43:42;;;;;;;4.60;2.20;;;;;;;15.48;100.00;98963.86;270914;1268;25440;-83
2023/08/09 06:49:54;;;;;;;3.20;1.60;;;;;;;15.77;100.00;98964.62;270647;1266;22908;-82
2023/08/09 06:56:03;;;;;;;5.10;2.50;;;;;;;15.90;100.00;98966.77;271441;1269;22257;-82
2023/08/09 07:02:05;;;;;;;6.80;2.20;;;;;;;16.01;100.00;98966.34;272974;1269;22212;-82
2023/08/09 07:08:07;;;;;;;4.60;2.10;;;;;;;16.20;100.00;98963.12;272451;1263;22310;-83
2023/08/09 07:14:08;;;;;;;2.80;1.60;;;;;;;16.42;100.00;98965.30;271800;1266;23229;-83
2023/08/09 07:20:11;;;;;;;3.50;1.70;;;;;;;16.69;100.00;98964.48;273348;1269;22410;-82
2023/08/09 07:26:12;;;;;;;5.00;1.90;;;;;;;16.96;100.00;98961.25;272758;1269;22551;-83
2023/08/09 07:32:15;;;;;;;3.90;1.50;;;;;;;17.23;100.00;98959.33;273440;1263;22895;-82
2023/08/09 07:38:17;;;;;;;5.90;1.80;;;;;;;17.53;100.00;98962.23;273368;1269;22370;-82
2023/08/09 07:44:18;;;;;;;3.90;1.60;;;;;;;17.79;100.00;98961.08;273330;1269;22343;-84
2023/08/09 07:50:20;;;;;;;1.70;1.10;;;;;;;18.06;100.00;98960.41;271852;1269;22549;-83
2023/08/09 07:56:29;;;;;;;1.90;1.30;;;;;;;18.56;100.00;98960.09;273294;1269;23905;-83
2023/08/09 08:02:31;;;;;;;1.80;1.00;;;;;;;19.04;100.00;98960.55;271877;1269;24197;-83
2023/08/09 08:08:39;;;;;;;3.50;1.40;;;;;;;19.29;100.00;98960.59;271021;1269;22552;-84
2023/08/09 08:14:49;;;;;;;2.80;1.50;;;;;;;19.32;100.00;98958.23;271567;1264;23802;-81
2023/08/09 08:20:51;;;;;;;7.90;2.70;;;;;;;19.32;100.00;98958.77;271696;1266;23259;-82
2023/08/09 08:27:01;;;;;;;2.70;1.00;;;;;;;19.48;100.00;98961.88;272162;1269;22320;-83
2023/08/09 08:33:17;;;;;;;3.00;1.30;;;;;;;19.56;100.00;98959.52;271807;1270;22319;-82
2023/08/09 08:39:19;;;;;;;2.80;1.50;;;;;;;19.60;99.95;98957.02;271919;1270;22532;-83
2023/08/09 08:45:22;;;;;;;4.40;1.50;;;;;;;19.77;99.72;98959.93;271778;1269;22331;-83
2023/08/09 08:51:27;;;;;;;2.20;1.30;;;;;;;19.85;98.99;98956.84;272018;1269;23326;-83
2023/08/09 08:57:29;;;;;;;2.90;1.10;;;;;;;19.95;97.35;98956.51;272473;1269;23229;-82
2023/08/09 09:03:31;;;;;;;3.10;1.40;;;;;;;20.07;96.86;98952.41;270172;1269;23580;-82
2023/08/09 09:09:34;;;;;;;2.80;1.50;;;;;;;20.23;95.13;98955.67;270849;1262;22569;-81
2023/08/09 09:15:36;;;;;;;2.20;1.20;;;;;;;20.66;93.67;98953.61;270815;1259;22594;-82
2023/08/09 09:21:41;;;;;;;3.10;1.20;;;;;;;21.12;91.92;98947.50;270760;1270;23703;-81
2023/08/09 09:27:47;;;;;;;3.70;1.20;;;;;;;21.20;89.22;98944.70;271490;1269;22547;-81
2023/08/09 09:33:52;;;;;;;2.10;1.40;;;;;;;21.21;88.32;98948.63;271602;1269;25400;-80
2023/08/09 09:39:56;;;;;;;5.90;1.40;;;;;;;21.28;87.77;98941.80;271256;1268;22544;-82
2023/08/09 09:45:57;;;;;;;3.70;1.20;;;;;;;21.49;86.19;98943.98;270562;1268;22538;-82
2023/08/09 09:51:59;;;;;;;2.60;1.10;;;;;;;21.83;85.66;98939.71;271030;1269;25549;-83
2023/08/09 09:58:01;;;;;;;2.60;1.40;;;;;;;21.97;83.80;98937.64;271288;1263;22507;-81
2023/08/09 10:04:09;;;;;;;4.90;1.30;;;;;;;22.31;82.58;98932.19;271926;1269;23640;-81
2023/08/09 10:18:17;;;;;;;3.20;1.30;;;;;;;23.43;79.69;98920.82;271674;1259;22797;-81
2023/08/09 10:24:31;;;;;;;2.20;1.10;;;;;;;23.02;77.30;98926.17;273423;1269;22235;-81
2023/08/09 10:30:47;;;;;;;2.50;1.10;;;;;;;22.40;76.37;98929.74;273800;1269;22208;-83
2023/08/09 10:36:51;;;;;;;5.80;1.30;;;;;;;21.81;77.26;98935.47;273627;1269;23520;-83
2023/08/09 10:42:52;;;;;;;2.10;1.20;;;;;;;21.48;76.99;98933.02;273359;1268;23116;-82
2023/08/09 10:48:59;;;;;;;3.50;1.50;;;;;;;21.18;77.04;98932.83;271490;1269;22552;-82
2023/08/09 10:55:13;;;;;;;;;;;;;;;20.95;76.77;98927.98;271570;1269;22659;-83
2023/08/09 11:01:15;;;;;;;2.90;1.20;;;;;;;20.75;77.02;98924.57;271781;1269;22208;-83
2023/08/09 11:07:20;;;;;;;5.00;1.20;;;;;;;20.56;76.16;98926.66;271096;1266;22539;-83
2023/08/09 11:13:22;;;;;;;4.10;1.50;;;;;;;20.47;75.54;98927.19;271946;1269;22461;-83
2023/08/09 11:19:24;;;;;;;3.40;1.50;;;;;;;20.36;75.62;98937.98;270745;1269;23706;-84
2023/08/09 11:25:27;;;;;;;1.90;1.50;;;;;;;20.13;76.59;98946.70;270005;1263;22540;-82
2023/08/09 11:31:33;;;;;;;2.10;1.40;;;;;;;19.94;78.17;98948.11;270356;1269;22542;-83
2023/08/09 11:37:35;;;;;;;4.40;1.70;;;;;;;19.97;78.73;98943.36;270734;1269;22632;-83
2023/08/09 11:43:36;;;;;;;3.40;1.40;;;;;;;19.93;79.55;98941.08;272317;1269;22693;-82
2023/08/09 11:49:40;;;;;;;3.40;1.70;;;;;;;20.00;80.46;98938.50;271889;1269;22393;-83
2023/08/09 11:55:41;;;;;;;3.60;1.80;;;;;;;20.07;80.58;98943.09;271467;1269;22648;-83
2023/08/09 12:01:52;;;;;;;5.70;2.00;;;;;;;20.01;79.97;98947.21;270870;1269;22357;-83
2023/08/09 12:08:03;;;;;;;3.00;1.40;;;;;;;19.92;79.76;98961.49;271093;1269;23167;-83
2023/08/09 12:14:05;;;;;;;2.50;1.70;;;;;;;19.86;80.29;98966.04;271372;1269;22551;-83
2023/08/09 12:20:09;;;;;;;8.00;1.60;;;;;;;19.71;81.04;98969.61;270544;1269;23869;-83
2023/08/09 12:26:11;;;;;;;8.60;1.60;;;;;;;19.53;81.05;98975.30;273012;1269;22523;-81
2023/08/09 12:32:13;;;;;;;6.70;2.20;;;;;;;19.34;81.62;98982.83;270645;1269;23431;-83
2023/08/09 12:38:15;;;;;;;6.80;1.90;;;;;;;19.24;82.29;98987.81;270566;1269;116232;-84
2023/08/09 12:44:17;;;;;;;4.00;2.00;;;;;;;19.26;84.08;98987.21;270682;1269;25224;-83
2023/08/09 12:50:20;;;;;;;4.50;2.50;;;;;;;19.40;84.65;98981.10;271137;1268;24161;-83
2023/08/09 12:56:23;;;;;;;3.90;2.20;;;;;;;19.35;83.86;98979.71;271233;1269;22610;-84
2023/08/09 13:02:26;;;;;;;5.00;2.50;;;;;;;19.26;84.52;98981.27;271785;1269;23748;-84
2023/08/09 13:08:29;;;;;;;4.10;2.10;;;;;;;19.15;85.53;98989.67;270705;1266;23919;-84
2023/08/09 13:14:32;;;;;;;3.90;2.30;;;;;;;19.06;86.78;98991.57;271667;1265;22536;-83
2023/08/09 13:20:36;;;;;;;4.40;2.30;;;;;;;19.05;87.75;98993.90;271943;1269;22465;-83
2023/08/09 13:26:38;;;;;;;5.50;2.30;;;;;;;19.01;87.61;98985.81;271532;1269;23459;-82
2023/08/09 13:32:42;;;;;;;4.50;2.20;;;;;;;19.01;88.11;98975.75;272980;1269;23794;-82
2023/08/09 13:38:44;;;;;;;3.60;2.00;;;;;;;19.03;88.82;98968.33;271739;1269;22287;-83
2023/08/09 13:44:47;;;;;;;4.40;2.40;;;;;;;19.04;89.04;98970.04;272712;1269;23366;-84
2023/08/09 13:50:49;;;;;;;2.90;2.10;;;;;;;19.04;89.45;98970.44;271311;1269;22537;-84
2023/08/09 13:56:51;;;;;;;5.20;2.40;;;;;;;19.06;89.70;98974.52;272221;1268;22546;-84
2023/08/09 14:02:52;;;;;;;3.20;2.00;;;;;;;19.07;89.77;98973.63;271009;1269;22570;-82
2023/08/09 14:08:55;;;;;;;3.50;1.90;;;;;;;19.02;88.58;98971.13;270576;1269;22635;-84
2023/08/09 14:14:57;;;;;;;5.90;2.00;;;;;;;18.95;88.24;98965.65;272094;1269;23358;-84
2023/08/09 14:20:58;;;;;;;2.10;1.30;;;;;;;18.90;88.40;98966.17;271636;1269;22572;-83
2023/08/09 14:27:00;;;;;;;2.20;1.20;;;;;;;18.85;87.74;98963.49;270892;1269;22269;-80
2023/08/09 14:33:05;;;;;;;2.50;1.40;;;;;;;18.82;87.10;98962.70;271422;1262;22554;-82
2023/08/09 14:39:07;;;;;;;1.60;1.10;;;;;;;18.84;86.54;98958.95;270746;1269;22549;-82
2023/08/09 14:45:11;;;;;;;2.10;1.00;;;;;;;18.81;86.12;98954.02;271576;1256;22560;-84
2023/08/09 14:51:12;;;;;;;1.80;1.10;;;;;;;18.78;86.27;98963.83;270782;1269;22538;-82
2023/08/09 14:57:14;;;;;;;1.70;1.10;;;;;;;18.74;85.90;98963.53;270523;1266;22217;-84
2023/08/09 15:03:16;;;;;;;1.40;1.20;;;;;;;18.71;84.99;98966.13;271261;1269;22498;-85
2023/08/09 15:09:56;;;;;;;1.50;1.00;;;;;;;18.69;84.67;98964.48;270958;1269;22550;-83
2023/08/09 15:16:02;;;;;;;3.70;1.30;;;;;;;18.70;84.00;98967.02;270934;1264;22637;-85
2023/08/09 15:22:04;;;;;;;1.40;1.10;;;;;;;18.70;84.15;98969.30;270897;1269;22602;-83
2023/08/09 15:28:09;;;;;;;1.50;1.00;;;;;;;18.71;83.99;98973.64;271137;1269;22543;-84
2023/08/09 15:34:12;;;;;;;2.10;1.00;;;;;;;18.72;83.90;98977.09;270847;1269;22571;-84
2023/08/09 15:40:13;;;;;;;1.80;0.70;;;;;;;18.73;83.76;98980.09;271689;1269;22901;-84
2023/08/09 15:46:15;;;;;;;1.50;1.00;;;;;;;18.74;83.82;98981.75;271489;1269;23622;-85
2023/08/09 15:52:18;;;;;;;1.80;0.70;;;;;;;18.73;84.13;98984.46;270666;1269;22391;-83
2023/08/09 15:58:20;;;;;;;1.70;0.90;;;;;;;18.69;84.54;98989.94;271769;1269;25883;-84
2023/08/09 16:04:23;;;;;;;2.10;1.00;;;;;;;18.68;84.54;98997.48;272071;1269;22611;-83
2023/08/09 16:10:24;;;;;;;2.80;1.60;;;;;;;18.69;84.26;98993.18;271581;1257;22627;-82
2023/08/09 16:16:27;;;;;;;2.40;1.20;;;;;;;18.76;84.17;98990.66;272404;1269;22510;-85
2023/08/09 16:22:29;;;;;;;2.70;1.10;;;;;;;18.82;83.76;98989.41;270651;1269;22569;-86
2023/08/09 16:28:34;;;;;;;4.60;1.10;;;;;;;18.81;84.18;98991.80;271625;1269;22549;-83
2023/08/09 16:34:36;;;;;;;1.60;0.80;;;;;;;18.76;83.89;98990.33;271744;1269;22597;-83
2023/08/09 16:40:38;;;;;;;2.60;0.70;;;;;;;18.72;83.37;99002.38;271475;1269;22552;-82
2023/08/09 16:46:45;;;;;;;1.40;0.70;;;;;;;18.75;83.07;99002.71;270172;1269;22551;-85
2023/08/09 16:52:50;;;;;;;2.20;1.00;;;;;;;18.76;83.44;99007.21;270870;1269;22530;-86
2023/08/09 16:58:55;;;;;;;1.90;0.80;;;;;;;18.69;83.97;99013.13;270536;1269;22528;-85
2023/08/09 17:04:57;;;;;;;1.10;0.70;;;;;;;18.60;83.55;99014.04;271099;1269;23443;-85
2023/08/09 17:10:59;;;;;;;1.50;0.80;;;;;;;18.55;83.29;99017.31;272349;1267;22369;-84
2023/08/09 17:17:01;;;;;;;2.40;1.10;;;;;;;18.49;84.17;99020.13;271732;1260;22335;-85
2023/08/09 17:23:04;;;;;;;1.40;1.00;;;;;;;18.40;84.27;99024.66;270965;1269;24177;-85
2023/08/09 17:29:06;;;;;;;2.10;0.80;;;;;;;18.29;84.12;99028.11;270634;1269;22650;-85
2023/08/09 17:35:11;;;;;;;1.80;0.70;;;;;;;18.21;84.47;99033.95;271118;1269;24884;-84
2023/08/09 17:41:12;;;;;;;2.70;0.80;;;;;;;18.15;85.01;99032.40;264186;1267;10001854;-86
2023/08/09 17:47:16;;;;;;;1.60;1.00;;;;;;;18.08;84.87;99038.15;273160;1269;22802;-85
2023/08/09 17:53:18;;;;;;;1.10;0.80;;;;;;;18.02;85.50;99041.91;272753;1269;22376;-85
2023/08/09 17:59:21;;;;;;;3.00;1.00;;;;;;;17.95;85.49;99045.13;271252;1269;22506;-85
2023/08/09 18:05:24;;;;;;;1.90;1.10;;;;;;;17.88;85.85;99049.59;272379;1269;22349;-86
2023/08/09 18:11:26;;;;;;;4.00;0.90;;;;;;;17.81;85.64;99055.35;272992;1258;22506;-83
2023/08/09 18:17:34;;;;;;;1.60;1.10;;;;;;;17.75;86.41;99058.94;272567;1264;22460;-85
2023/08/09 18:23:36;;;;;;;2.90;1.10;;;;;;;17.69;87.61;99061.23;272696;1269;22407;-87
2023/08/09 18:29:38;;;;;;;2.20;1.20;;;;;;;17.63;88.28;99068.68;270604;1269;24206;-85
2023/08/09 18:35:40;;;;;;;2.90;1.40;;;;;;;17.56;88.01;99077.49;271489;1269;22637;-86
2023/08/09 18:41:42;;;;;;;6.40;1.50;;;;;;;17.48;87.83;99088.77;271481;1269;22537;-83
2023/08/09 18:47:43;;;;;;;3.10;1.10;;;;;;;17.40;88.45;99090.53;272301;1269;22566;-85
2023/08/09 18:53:46;;;;;;;2.10;1.30;;;;;;;17.30;88.87;99096.05;271029;1269;22565;-85
2023/08/09 18:59:49;;;;;;;3.00;1.30;;;;;;;17.22;89.79;99100.89;271631;1269;23336;-85
2023/08/09 19:05:51;;;;;;;2.50;1.40;;;;;;;17.16;90.85;99107.23;271293;1263;22675;-84
2023/08/09 19:11:54;;;;;;;3.00;1.20;;;;;;;17.10;91.57;99113.39;271567;1269;22664;-84
2023/08/09 19:17:57;;;;;;;3.10;1.50;;;;;;;17.05;92.29;99112.98;271461;1269;24257;-85
2023/08/09 19:23:58;;;;;;;2.90;1.40;;;;;;;16.97;92.72;99115.30;272547;1268;23901;-84
2023/08/09 19:30:01;;;;;;;6.90;2.10;;;;;;;16.88;93.27;99118.25;271949;1269;22514;-84
2023/08/09 19:36:06;;;;;;;13.80;2.10;;;;;;;16.80;94.30;99129.41;271876;1269;22538;-84
2023/08/09 19:42:08;;;;;;;6.60;2.40;;;;;;;16.67;94.21;99144.80;271144;1269;22686;-84
2023/08/09 19:48:13;;;;;;;8.70;1.80;;;;;;;16.55;93.87;99150.77;271261;1269;22193;-85
2023/08/09 19:54:15;;;;;;;4.00;1.20;;;;;;;16.44;93.65;99162.71;271084;1269;22667;-84
2023/08/09 20:00:17;;;;;;;3.80;1.10;;;;;;;16.35;93.54;99171.70;271537;1269;22602;-85
2023/08/09 20:06:20;;;;;;;7.00;1.30;;;;;;;16.25;93.48;99178.03;270987;1269;22568;-83
2023/08/09 20:12:21;;;;;;;2.40;0.70;;;;;;;16.11;93.37;99187.70;271023;1269;23646;-84
2023/08/09 20:18:23;;;;;;;4.10;1.30;;;;;;;15.96;93.01;99191.13;272112;1269;22536;-84
2023/08/09 20:24:43;;;;;;;4.00;0.90;;;;;;;15.85;93.17;99196.64;271524;1269;22545;-82
2023/08/09 20:30:45;;;;;;;0.90;0.70;;;;;;;15.73;93.64;99202.40;272845;1269;22308;-84
2023/08/09 20:36:48;;;;;;;2.20;0.90;;;;;;;15.65;94.27;99203.40;272246;1259;22237;-85
2023/08/09 20:42:49;;;;;;;2.60;0.80;;;;;;;15.59;95.05;99212.41;271723;1267;23189;-84
2023/08/09 20:48:53;;;;;;;3.00;1.10;;;;;;;15.57;96.13;99219.91;271336;1269;22936;-82
2023/08/09 20:54:55;;;;;;;3.00;1.30;;;;;;;15.54;96.80;99225.29;272338;1269;22374;-84
2023/08/09 21:01:00;;;;;;;3.20;1.10;;;;;;;15.50;97.50;99235.79;272379;1269;24231;-84
2023/08/09 21:07:02;;;;;;;3.60;1.50;;;;;;;15.45;98.10;99243.30;272506;1269;22390;-85
2023/08/09 21:13:03;;;;;;;2.50;1.00;;;;;;;15.39;98.49;99246.47;273213;1269;22243;-83
2023/08/09 21:19:05;;;;;;;3.10;1.20;;;;;;;15.35;99.09;99254.20;270158;1262;22545;-85
2023/08/09 21:25:07;;;;;;;11.50;1.70;;;;;;;15.32;99.62;99262.32;270674;1264;23688;-83
2023/08/09 21:31:09;;;;;;;6.30;1.70;;;;;;;15.26;99.80;99271.17;271631;1269;22162;-82
2023/08/09 21:37:13;;;;;;;8.60;1.60;;;;;;;15.21;100.00;99287.34;271227;1269;22886;-85
2023/08/09 21:43:15;;;;;;;5.20;2.20;;;;;;;15.15;100.00;99295.63;271834;1269;22718;-84
2023/08/09 21:49:17;;;;;;;8.90;1.80;;;;;;;15.09;100.00;99306.20;272016;1257;23783;-85
2023/08/09 21:55:18;;;;;;;4.50;1.70;;;;;;;15.05;100.00;99315.19;272352;1268;22631;-85
2023/08/09 22:01:22;;;;;;;8.10;2.10;;;;;;;15.01;100.00;99320.54;272674;1269;22283;-85
2023/08/09 22:07:23;;;;;;;4.90;1.70;;;;;;;14.98;100.00;99318.81;273032;1269;22220;-85
2023/08/09 22:13:25;;;;;;;2.60;2.00;;;;;;;14.97;100.00;99323.77;270814;1266;22558;-84
2023/08/09 22:19:28;;;;;;;6.10;2.00;;;;;;;14.96;100.00;99327.88;272140;1269;22233;-84
2023/08/09 22:25:29;;;;;;;5.70;2.20;;;;;;;14.96;100.00;99325.36;273259;1269;22367;-85
2023/08/09 22:31:31;;;;;;;5.40;2.50;;;;;;;14.94;100.00;99327.64;273051;1269;22531;-85
2023/08/09 22:37:34;;;;;;;9.40;2.60;;;;;;;14.91;100.00;99326.47;271506;1269;22412;-85
2023/08/09 22:43:36;;;;;;;9.50;2.70;;;;;;;14.87;100.00;99331.27;271591;1268;22522;-83
2023/08/09 22:49:38;;;;;;;13.10;3.90;;;;;;;14.84;100.00;99337.27;269914;1257;22554;-83
2023/08/09 22:55:39;;;;;;;5.90;2.50;;;;;;;14.82;100.00;99338.30;270985;1264;22412;-83
2023/08/09 23:01:41;;;;;;;8.50;3.00;;;;;;;14.80;100.00;99334.98;270884;1269;22219;-83
2023/08/09 23:07:43;;;;;;;7.30;3.80;;;;;;;14.78;100.00;99329.48;272951;1269;23447;-84
2023/08/09 23:13:45;;;;;;;15.50;4.20;;;;;;;14.76;100.00;99329.64;273213;1269;22179;-85
2023/08/09 23:19:47;;;;;;;14.20;4.70;;;;;;;14.72;100.00;99329.95;270978;1268;22532;-83
2023/08/09 23:25:48;;;;;;;13.10;4.60;;;;;;;14.69;100.00;99334.52;270532;1269;22541;-83
2023/08/09 23:31:51;;;;;;;8.60;3.20;;;;;;;14.61;100.00;99338.84;270727;1269;22385;-84
2023/08/09 23:37:53;;;;;;;10.60;3.30;;;;;;;14.51;100.00;99344.27;271603;1269;22626;-84
2023/08/09 23:43:55;;;;;;;4.90;2.90;;;;;;;14.44;100.00;99348.36;269677;1269;22631;-83
2023/08/09 23:49:57;;;;;;;7.20;3.00;;;;;;;14.41;100.00;99359.20;270070;1263;25791;-83
2023/08/09 23:55:59;;;;;;;4.80;3.30;;;;;;;14.40;100.00;99360.55;269572;1269;22527;-84
